sensor_id;sensor_type;location;lat;lon;timestamp;P1;durP1;ratioP1;P2;durP2;ratioP2
47519;SDS011;33252;48.122;11.538;2024-01-30T00:01:14;11.25;;;6.00;;
47519;SDS011;33252;48.122;11.538;2024-01-30T00:03:40;10.38;;;5.90;;
47519;SDS011;33252;48.122;11.538;2024-01-30T00:06:06;11.02;;;6.47;;
47519;SDS011;33252;48.122;11.538;2024-01-30T00:08:32;11.10;;;5.82;;
47519;SDS011;33252;48.122;11.538;2024-01-30T00:10:58;11.60;;;5.97;;
47519;SDS011;33252;48.122;11.538;2024-01-30T00:13:23;9.27;;;5.45;;
47519;SDS011;33252;48.122;11.538;2024-01-30T00:15:49;11.40;;;6.20;;
47519;SDS011;33252;48.122;11.538;2024-01-30T00:18:14;11.80;;;5.32;;
47519;SDS011;33252;48.122;11.538;2024-01-30T00:20:40;11.13;;;5.18;;
47519;SDS011;33252;48.122;11.538;2024-01-30T00:23:06;9.88;;;6.03;;
47519;SDS011;33252;48.122;11.538;2024-01-30T00:25:31;10.60;;;5.38;;
47519;SDS011;33252;48.122;11.538;2024-01-30T00:27:58;8.55;;;4.93;;
47519;SDS011;33252;48.122;11.538;2024-01-30T00:30:24;10.32;;;4.95;;
47519;SDS011;33252;48.122;11.538;2024-01-30T00:32:49;9.55;;;4.78;;
47519;SDS011;33252;48.122;11.538;2024-01-30T00:35:15;11.23;;;5.63;;
47519;SDS011;33252;48.122;11.538;2024-01-30T00:37:40;10.60;;;5.03;;
47519;SDS011;33252;48.122;11.538;2024-01-30T00:40:06;8.77;;;4.93;;
47519;SDS011;33252;48.122;11.538;2024-01-30T00:42:32;7.78;;;5.15;;
47519;SDS011;33252;48.122;11.538;2024-01-30T00:44:58;9.55;;;4.28;;
47519;SDS011;33252;48.122;11.538;2024-01-30T00:47:23;7.45;;;4.32;;
47519;SDS011;33252;48.122;11.538;2024-01-30T00:49:49;7.78;;;3.85;;
47519;SDS011;33252;48.122;11.538;2024-01-30T00:52:14;7.20;;;4.75;;
47519;SDS011;33252;48.122;11.538;2024-01-30T00:54:40;8.10;;;4.97;;
47519;SDS011;33252;48.122;11.538;2024-01-30T00:57:06;10.13;;;5.53;;
47519;SDS011;33252;48.122;11.538;2024-01-30T00:59:32;10.50;;;4.72;;
47519;SDS011;33252;48.122;11.538;2024-01-30T01:01:57;8.88;;;4.50;;
47519;SDS011;33252;48.122;11.538;2024-01-30T01:04:23;10.07;;;4.75;;
47519;SDS011;33252;48.122;11.538;2024-01-30T01:06:48;6.63;;;4.18;;
47519;SDS011;33252;48.122;11.538;2024-01-30T01:09:14;6.13;;;3.50;;
47519;SDS011;33252;48.122;11.538;2024-01-30T01:11:40;9.98;;;4.80;;
47519;SDS011;33252;48.122;11.538;2024-01-30T01:14:05;7.40;;;3.75;;
47519;SDS011;33252;48.122;11.538;2024-01-30T01:16:31;10.07;;;4.53;;
47519;SDS011;33252;48.122;11.538;2024-01-30T01:18:56;7.18;;;4.40;;
47519;SDS011;33252;48.122;11.538;2024-01-30T01:21:22;8.80;;;4.53;;
47519;SDS011;33252;48.122;11.538;2024-01-30T01:23:48;11.20;;;4.90;;
47519;SDS011;33252;48.122;11.538;2024-01-30T01:26:13;7.47;;;3.80;;
47519;SDS011;33252;48.122;11.538;2024-01-30T01:28:40;6.63;;;4.15;;
47519;SDS011;33252;48.122;11.538;2024-01-30T01:31:06;11.05;;;4.07;;
47519;SDS011;33252;48.122;11.538;2024-01-30T01:33:32;7.32;;;4.72;;
47519;SDS011;33252;48.122;11.538;2024-01-30T01:35:58;8.88;;;4.90;;
47519;SDS011;33252;48.122;11.538;2024-01-30T01:38:24;10.18;;;4.38;;
47519;SDS011;33252;48.122;11.538;2024-01-30T01:40:49;8.82;;;4.60;;
47519;SDS011;33252;48.122;11.538;2024-01-30T01:43:16;12.07;;;5.57;;
47519;SDS011;33252;48.122;11.538;2024-01-30T01:45:41;8.05;;;4.78;;
47519;SDS011;33252;48.122;11.538;2024-01-30T01:48:07;6.95;;;5.00;;
47519;SDS011;33252;48.122;11.538;2024-01-30T01:50:34;9.48;;;4.85;;
47519;SDS011;33252;48.122;11.538;2024-01-30T01:53:00;10.18;;;4.68;;
47519;SDS011;33252;48.122;11.538;2024-01-30T01:55:27;6.88;;;3.97;;
47519;SDS011;33252;48.122;11.538;2024-01-30T01:57:55;9.52;;;4.50;;
47519;SDS011;33252;48.122;11.538;2024-01-30T02:00:21;8.85;;;4.75;;
47519;SDS011;33252;48.122;11.538;2024-01-30T02:02:47;8.50;;;4.18;;
47519;SDS011;33252;48.122;11.538;2024-01-30T02:05:12;7.03;;;4.45;;
47519;SDS011;33252;48.122;11.538;2024-01-30T02:07:39;6.20;;;4.20;;
47519;SDS011;33252;48.122;11.538;2024-01-30T02:10:05;6.78;;;4.82;;
47519;SDS011;33252;48.122;11.538;2024-01-30T02:12:32;6.82;;;4.63;;
47519;SDS011;33252;48.122;11.538;2024-01-30T02:14:58;8.70;;;4.28;;
47519;SDS011;33252;48.122;11.538;2024-01-30T02:17:23;5.97;;;3.80;;
47519;SDS011;33252;48.122;11.538;2024-01-30T02:19:49;6.93;;;5.28;;
47519;SDS011;33252;48.122;11.538;2024-01-30T02:22:14;5.75;;;3.72;;
47519;SDS011;33252;48.122;11.538;2024-01-30T02:24:40;5.88;;;3.22;;
47519;SDS011;33252;48.122;11.538;2024-01-30T02:27:06;7.60;;;3.20;;
47519;SDS011;33252;48.122;11.538;2024-01-30T02:29:31;9.60;;;3.92;;
47519;SDS011;33252;48.122;11.538;2024-01-30T02:31:57;7.80;;;3.55;;
47519;SDS011;33252;48.122;11.538;2024-01-30T02:34:23;8.52;;;4.55;;
47519;SDS011;33252;48.122;11.538;2024-01-30T02:36:49;10.02;;;4.65;;
47519;SDS011;33252;48.122;11.538;2024-01-30T02:39:14;7.32;;;3.80;;
47519;SDS011;33252;48.122;11.538;2024-01-30T02:41:40;5.20;;;3.90;;
47519;SDS011;33252;48.122;11.538;2024-01-30T02:44:05;6.47;;;4.13;;
47519;SDS011;33252;48.122;11.538;2024-01-30T02:46:31;6.25;;;3.95;;
47519;SDS011;33252;48.122;11.538;2024-01-30T02:48:56;8.90;;;4.68;;
47519;SDS011;33252;48.122;11.538;2024-01-30T02:51:22;6.97;;;4.13;;
47519;SDS011;33252;48.122;11.538;2024-01-30T02:53:47;7.07;;;3.50;;
47519;SDS011;33252;48.122;11.538;2024-01-30T02:56:13;8.77;;;4.20;;
47519;SDS011;33252;48.122;11.538;2024-01-30T02:58:39;5.97;;;3.35;;
47519;SDS011;33252;48.122;11.538;2024-01-30T03:01:05;6.05;;;3.63;;
47519;SDS011;33252;48.122;11.538;2024-01-30T03:03:31;6.53;;;3.67;;
47519;SDS011;33252;48.122;11.538;2024-01-30T03:05:56;8.63;;;3.92;;
47519;SDS011;33252;48.122;11.538;2024-01-30T03:08:22;8.77;;;4.65;;
47519;SDS011;33252;48.122;11.538;2024-01-30T03:10:48;7.07;;;3.65;;
47519;SDS011;33252;48.122;11.538;2024-01-30T03:13:13;8.73;;;4.25;;
47519;SDS011;33252;48.122;11.538;2024-01-30T03:15:39;6.60;;;3.33;;
47519;SDS011;33252;48.122;11.538;2024-01-30T03:18:05;8.80;;;3.50;;
47519;SDS011;33252;48.122;11.538;2024-01-30T03:20:30;10.20;;;3.67;;
47519;SDS011;33252;48.122;11.538;2024-01-30T03:22:56;5.40;;;3.42;;
47519;SDS011;33252;48.122;11.538;2024-01-30T03:25:22;5.43;;;3.15;;
47519;SDS011;33252;48.122;11.538;2024-01-30T03:27:47;6.70;;;3.22;;
47519;SDS011;33252;48.122;11.538;2024-01-30T03:30:13;5.95;;;3.53;;
47519;SDS011;33252;48.122;11.538;2024-01-30T03:32:39;7.63;;;4.40;;
47519;SDS011;33252;48.122;11.538;2024-01-30T03:35:05;4.22;;;2.72;;
47519;SDS011;33252;48.122;11.538;2024-01-30T03:37:30;4.93;;;2.65;;
47519;SDS011;33252;48.122;11.538;2024-01-30T03:39:56;6.00;;;4.00;;
47519;SDS011;33252;48.122;11.538;2024-01-30T03:42:22;7.03;;;3.67;;
47519;SDS011;33252;48.122;11.538;2024-01-30T03:44:47;5.35;;;2.67;;
47519;SDS011;33252;48.122;11.538;2024-01-30T03:47:13;7.68;;;4.07;;
47519;SDS011;33252;48.122;11.538;2024-01-30T03:49:39;5.05;;;3.78;;
47519;SDS011;33252;48.122;11.538;2024-01-30T03:52:05;6.88;;;3.92;;
47519;SDS011;33252;48.122;11.538;2024-01-30T03:54:30;6.40;;;3.40;;
47519;SDS011;33252;48.122;11.538;2024-01-30T03:56:56;4.55;;;3.05;;
47519;SDS011;33252;48.122;11.538;2024-01-30T03:59:21;7.00;;;3.20;;
47519;SDS011;33252;48.122;11.538;2024-01-30T04:01:49;7.00;;;3.63;;
47519;SDS011;33252;48.122;11.538;2024-01-30T04:04:16;7.25;;;3.47;;
47519;SDS011;33252;48.122;11.538;2024-01-30T04:06:42;5.97;;;2.90;;
47519;SDS011;33252;48.122;11.538;2024-01-30T04:09:08;8.88;;;3.83;;
47519;SDS011;33252;48.122;11.538;2024-01-30T04:11:33;4.07;;;2.72;;
47519;SDS011;33252;48.122;11.538;2024-01-30T04:13:59;4.82;;;2.75;;
47519;SDS011;33252;48.122;11.538;2024-01-30T04:16:24;6.63;;;3.33;;
47519;SDS011;33252;48.122;11.538;2024-01-30T04:18:51;4.68;;;2.80;;
47519;SDS011;33252;48.122;11.538;2024-01-30T04:21:17;6.00;;;2.83;;
47519;SDS011;33252;48.122;11.538;2024-01-30T04:23:42;4.60;;;2.58;;
47519;SDS011;33252;48.122;11.538;2024-01-30T04:26:08;4.88;;;3.10;;
47519;SDS011;33252;48.122;11.538;2024-01-30T04:28:34;8.73;;;3.35;;
47519;SDS011;33252;48.122;11.538;2024-01-30T04:30:59;6.30;;;3.40;;
47519;SDS011;33252;48.122;11.538;2024-01-30T04:33:25;7.95;;;2.80;;
47519;SDS011;33252;48.122;11.538;2024-01-30T04:35:50;5.88;;;2.83;;
47519;SDS011;33252;48.122;11.538;2024-01-30T04:38:16;5.40;;;3.22;;
47519;SDS011;33252;48.122;11.538;2024-01-30T04:40:42;5.10;;;3.17;;
47519;SDS011;33252;48.122;11.538;2024-01-30T04:43:08;5.32;;;2.40;;
47519;SDS011;33252;48.122;11.538;2024-01-30T04:45:33;4.50;;;2.55;;
47519;SDS011;33252;48.122;11.538;2024-01-30T04:47:59;6.78;;;2.58;;
47519;SDS011;33252;48.122;11.538;2024-01-30T04:50:24;6.03;;;3.22;;
47519;SDS011;33252;48.122;11.538;2024-01-30T04:52:51;4.97;;;2.42;;
47519;SDS011;33252;48.122;11.538;2024-01-30T04:55:17;3.17;;;2.22;;
47519;SDS011;33252;48.122;11.538;2024-01-30T04:57:42;4.10;;;2.38;;
47519;SDS011;33252;48.122;11.538;2024-01-30T05:00:08;5.40;;;2.70;;
47519;SDS011;33252;48.122;11.538;2024-01-30T05:02:34;4.97;;;2.60;;
47519;SDS011;33252;48.122;11.538;2024-01-30T05:05:00;5.28;;;2.65;;
47519;SDS011;33252;48.122;11.538;2024-01-30T05:07:25;4.47;;;2.65;;
47519;SDS011;33252;48.122;11.538;2024-01-30T05:09:51;4.78;;;1.98;;
47519;SDS011;33252;48.122;11.538;2024-01-30T05:12:17;5.90;;;2.10;;
47519;SDS011;33252;48.122;11.538;2024-01-30T05:14:42;3.58;;;2.58;;
47519;SDS011;33252;48.122;11.538;2024-01-30T05:17:08;5.18;;;2.25;;
47519;SDS011;33252;48.122;11.538;2024-01-30T05:19:35;5.55;;;2.72;;
47519;SDS011;33252;48.122;11.538;2024-01-30T05:22:00;5.07;;;2.15;;
47519;SDS011;33252;48.122;11.538;2024-01-30T05:24:26;3.88;;;2.60;;
47519;SDS011;33252;48.122;11.538;2024-01-30T05:26:52;4.43;;;2.50;;
47519;SDS011;33252;48.122;11.538;2024-01-30T05:29:17;7.88;;;3.33;;
47519;SDS011;33252;48.122;11.538;2024-01-30T05:31:43;6.32;;;3.17;;
47519;SDS011;33252;48.122;11.538;2024-01-30T05:34:08;6.38;;;2.72;;
47519;SDS011;33252;48.122;11.538;2024-01-30T05:36:34;5.65;;;2.85;;
47519;SDS011;33252;48.122;11.538;2024-01-30T05:39:00;4.38;;;2.83;;
47519;SDS011;33252;48.122;11.538;2024-01-30T05:41:25;6.63;;;2.63;;
47519;SDS011;33252;48.122;11.538;2024-01-30T05:43:51;6.38;;;2.42;;
47519;SDS011;33252;48.122;11.538;2024-01-30T05:46:17;7.15;;;2.55;;
47519;SDS011;33252;48.122;11.538;2024-01-30T05:48:42;6.03;;;2.60;;
47519;SDS011;33252;48.122;11.538;2024-01-30T05:51:08;9.00;;;2.53;;
47519;SDS011;33252;48.122;11.538;2024-01-30T05:53:34;4.75;;;2.63;;
47519;SDS011;33252;48.122;11.538;2024-01-30T05:56:03;3.50;;;2.00;;
47519;SDS011;33252;48.122;11.538;2024-01-30T05:58:28;5.10;;;2.53;;
47519;SDS011;33252;48.122;11.538;2024-01-30T06:00:54;4.18;;;2.47;;
47519;SDS011;33252;48.122;11.538;2024-01-30T06:03:20;3.92;;;2.58;;
47519;SDS011;33252;48.122;11.538;2024-01-30T06:05:45;4.80;;;2.75;;
47519;SDS011;33252;48.122;11.538;2024-01-30T06:08:11;4.45;;;2.70;;
47519;SDS011;33252;48.122;11.538;2024-01-30T06:10:36;3.75;;;2.65;;
47519;SDS011;33252;48.122;11.538;2024-01-30T06:13:02;5.45;;;3.45;;
47519;SDS011;33252;48.122;11.538;2024-01-30T06:15:27;6.70;;;3.13;;
47519;SDS011;33252;48.122;11.538;2024-01-30T06:17:54;4.40;;;2.72;;
47519;SDS011;33252;48.122;11.538;2024-01-30T06:20:20;4.60;;;3.30;;
47519;SDS011;33252;48.122;11.538;2024-01-30T06:22:46;5.05;;;2.90;;
47519;SDS011;33252;48.122;11.538;2024-01-30T06:25:12;4.20;;;2.58;;
47519;SDS011;33252;48.122;11.538;2024-01-30T06:27:37;4.68;;;2.67;;
47519;SDS011;33252;48.122;11.538;2024-01-30T06:30:04;6.15;;;3.17;;
47519;SDS011;33252;48.122;11.538;2024-01-30T06:32:30;5.47;;;3.15;;
47519;SDS011;33252;48.122;11.538;2024-01-30T06:34:59;4.68;;;3.17;;
47519;SDS011;33252;48.122;11.538;2024-01-30T06:37:25;5.65;;;3.05;;
47519;SDS011;33252;48.122;11.538;2024-01-30T06:39:51;6.70;;;4.13;;
47519;SDS011;33252;48.122;11.538;2024-01-30T06:42:17;9.00;;;4.07;;
47519;SDS011;33252;48.122;11.538;2024-01-30T06:44:43;6.13;;;3.70;;
47519;SDS011;33252;48.122;11.538;2024-01-30T06:47:09;6.15;;;3.40;;
47519;SDS011;33252;48.122;11.538;2024-01-30T06:49:35;4.97;;;3.20;;
47519;SDS011;33252;48.122;11.538;2024-01-30T06:52:04;5.22;;;3.10;;
47519;SDS011;33252;48.122;11.538;2024-01-30T06:54:31;9.23;;;3.95;;
47519;SDS011;33252;48.122;11.538;2024-01-30T06:56:57;11.18;;;4.00;;
47519;SDS011;33252;48.122;11.538;2024-01-30T06:59:23;8.82;;;3.42;;
47519;SDS011;33252;48.122;11.538;2024-01-30T07:01:49;6.35;;;2.58;;
47519;SDS011;33252;48.122;11.538;2024-01-30T07:04:15;7.80;;;2.88;;
47519;SDS011;33252;48.122;11.538;2024-01-30T07:06:41;8.80;;;3.25;;
47519;SDS011;33252;48.122;11.538;2024-01-30T07:09:07;5.38;;;3.17;;
47519;SDS011;33252;48.122;11.538;2024-01-30T07:11:33;6.18;;;3.17;;
47519;SDS011;33252;48.122;11.538;2024-01-30T07:13:59;6.47;;;3.33;;
47519;SDS011;33252;48.122;11.538;2024-01-30T07:16:24;7.22;;;2.72;;
47519;SDS011;33252;48.122;11.538;2024-01-30T07:18:50;5.95;;;3.30;;
47519;SDS011;33252;48.122;11.538;2024-01-30T07:21:15;8.95;;;3.42;;
47519;SDS011;33252;48.122;11.538;2024-01-30T07:23:41;4.47;;;2.10;;
47519;SDS011;33252;48.122;11.538;2024-01-30T07:26:08;5.93;;;3.22;;
47519;SDS011;33252;48.122;11.538;2024-01-30T07:28:34;12.75;;;4.90;;
47519;SDS011;33252;48.122;11.538;2024-01-30T07:31:03;16.30;;;5.18;;
47519;SDS011;33252;48.122;11.538;2024-01-30T07:33:28;21.10;;;7.45;;
47519;SDS011;33252;48.122;11.538;2024-01-30T07:35:54;20.48;;;6.15;;
47519;SDS011;33252;48.122;11.538;2024-01-30T07:38:20;20.08;;;7.07;;
47519;SDS011;33252;48.122;11.538;2024-01-30T07:40:45;16.73;;;5.32;;
47519;SDS011;33252;48.122;11.538;2024-01-30T07:43:11;23.85;;;6.95;;
47519;SDS011;33252;48.122;11.538;2024-01-30T07:45:37;21.48;;;7.05;;
47519;SDS011;33252;48.122;11.538;2024-01-30T07:48:03;17.85;;;6.25;;
47519;SDS011;33252;48.122;11.538;2024-01-30T07:50:32;18.92;;;7.18;;
47519;SDS011;33252;48.122;11.538;2024-01-30T07:52:58;16.50;;;5.95;;
47519;SDS011;33252;48.122;11.538;2024-01-30T07:55:25;14.85;;;5.75;;
47519;SDS011;33252;48.122;11.538;2024-01-30T07:57:53;19.52;;;7.15;;
47519;SDS011;33252;48.122;11.538;2024-01-30T08:00:20;20.75;;;7.18;;
47519;SDS011;33252;48.122;11.538;2024-01-30T08:02:46;18.13;;;5.35;;
47519;SDS011;33252;48.122;11.538;2024-01-30T08:05:12;10.45;;;4.43;;
47519;SDS011;33252;48.122;11.538;2024-01-30T08:07:40;13.90;;;4.78;;
47519;SDS011;33252;48.122;11.538;2024-01-30T08:10:08;20.63;;;4.97;;
47519;SDS011;33252;48.122;11.538;2024-01-30T08:12:35;11.13;;;3.78;;
47519;SDS011;33252;48.122;11.538;2024-01-30T08:15:00;13.65;;;4.72;;
47519;SDS011;33252;48.122;11.538;2024-01-30T08:17:26;14.05;;;3.50;;
47519;SDS011;33252;48.122;11.538;2024-01-30T08:19:51;10.73;;;4.00;;
47519;SDS011;33252;48.122;11.538;2024-01-30T08:22:17;13.65;;;4.32;;
47519;SDS011;33252;48.122;11.538;2024-01-30T08:24:42;8.68;;;4.30;;
47519;SDS011;33252;48.122;11.538;2024-01-30T08:27:08;13.20;;;3.75;;
47519;SDS011;33252;48.122;11.538;2024-01-30T08:29:37;7.35;;;3.13;;
47519;SDS011;33252;48.122;11.538;2024-01-30T08:32:03;7.97;;;2.80;;
47519;SDS011;33252;48.122;11.538;2024-01-30T08:34:30;7.18;;;2.90;;
47519;SDS011;33252;48.122;11.538;2024-01-30T08:36:55;7.03;;;3.97;;
47519;SDS011;33252;48.122;11.538;2024-01-30T08:39:21;6.07;;;2.17;;
47519;SDS011;33252;48.122;11.538;2024-01-30T08:41:46;7.82;;;2.90;;
47519;SDS011;33252;48.122;11.538;2024-01-30T08:44:12;11.50;;;2.80;;
47519;SDS011;33252;48.122;11.538;2024-01-30T08:46:37;16.77;;;4.90;;
47519;SDS011;33252;48.122;11.538;2024-01-30T08:49:03;25.15;;;6.40;;
47519;SDS011;33252;48.122;11.538;2024-01-30T08:51:31;18.00;;;6.32;;
47519;SDS011;33252;48.122;11.538;2024-01-30T08:53:57;9.57;;;2.97;;
47519;SDS011;33252;48.122;11.538;2024-01-30T08:56:22;5.18;;;1.67;;
47519;SDS011;33252;48.122;11.538;2024-01-30T08:58:48;7.88;;;4.15;;
47519;SDS011;33252;48.122;11.538;2024-01-30T09:01:14;7.07;;;2.20;;
47519;SDS011;33252;48.122;11.538;2024-01-30T09:03:39;4.38;;;1.83;;
47519;SDS011;33252;48.122;11.538;2024-01-30T09:06:09;4.70;;;1.85;;
47519;SDS011;33252;48.122;11.538;2024-01-30T09:08:35;3.55;;;2.40;;
47519;SDS011;33252;48.122;11.538;2024-01-30T09:11:01;3.33;;;2.17;;
47519;SDS011;33252;48.122;11.538;2024-01-30T09:13:27;6.30;;;2.50;;
47519;SDS011;33252;48.122;11.538;2024-01-30T09:15:52;6.43;;;2.42;;
47519;SDS011;33252;48.122;11.538;2024-01-30T09:18:18;7.97;;;2.42;;
47519;SDS011;33252;48.122;11.538;2024-01-30T09:20:44;6.22;;;2.90;;
47519;SDS011;33252;48.122;11.538;2024-01-30T09:23:12;7.82;;;2.70;;
47519;SDS011;33252;48.122;11.538;2024-01-30T09:25:38;4.90;;;2.28;;
47519;SDS011;33252;48.122;11.538;2024-01-30T09:28:04;7.70;;;2.15;;
47519;SDS011;33252;48.122;11.538;2024-01-30T09:30:30;4.95;;;2.05;;
47519;SDS011;33252;48.122;11.538;2024-01-30T09:32:55;12.95;;;2.63;;
47519;SDS011;33252;48.122;11.538;2024-01-30T09:35:21;5.93;;;1.85;;
47519;SDS011;33252;48.122;11.538;2024-01-30T09:37:46;7.15;;;2.00;;
47519;SDS011;33252;48.122;11.538;2024-01-30T09:40:13;6.32;;;2.08;;
47519;SDS011;33252;48.122;11.538;2024-01-30T09:42:39;3.97;;;1.88;;
47519;SDS011;33252;48.122;11.538;2024-01-30T09:45:07;2.95;;;1.63;;
47519;SDS011;33252;48.122;11.538;2024-01-30T09:47:37;3.35;;;1.70;;
47519;SDS011;33252;48.122;11.538;2024-01-30T09:50:08;4.25;;;1.85;;
47519;SDS011;33252;48.122;11.538;2024-01-30T09:52:35;5.53;;;1.55;;
47519;SDS011;33252;48.122;11.538;2024-01-30T09:55:00;6.93;;;1.58;;
47519;SDS011;33252;48.122;11.538;2024-01-30T09:57:26;3.38;;;1.40;;
47519;SDS011;33252;48.122;11.538;2024-01-30T09:59:52;2.95;;;1.42;;
47519;SDS011;33252;48.122;11.538;2024-01-30T10:02:19;4.38;;;1.50;;
47519;SDS011;33252;48.122;11.538;2024-01-30T10:04:47;4.90;;;1.70;;
47519;SDS011;33252;48.122;11.538;2024-01-30T10:07:13;5.32;;;2.15;;
47519;SDS011;33252;48.122;11.538;2024-01-30T10:09:39;5.88;;;1.63;;
47519;SDS011;33252;48.122;11.538;2024-01-30T10:12:05;7.18;;;1.90;;
47519;SDS011;33252;48.122;11.538;2024-01-30T10:14:32;9.70;;;3.15;;
47519;SDS011;33252;48.122;11.538;2024-01-30T10:16:58;5.63;;;2.80;;
47519;SDS011;33252;48.122;11.538;2024-01-30T10:19:24;5.70;;;2.88;;
47519;SDS011;33252;48.122;11.538;2024-01-30T10:21:49;9.05;;;3.97;;
47519;SDS011;33252;48.122;11.538;2024-01-30T10:24:15;5.43;;;3.00;;
47519;SDS011;33252;48.122;11.538;2024-01-30T10:26:43;7.65;;;3.30;;
47519;SDS011;33252;48.122;11.538;2024-01-30T10:29:09;5.47;;;2.92;;
47519;SDS011;33252;48.122;11.538;2024-01-30T10:31:34;7.30;;;2.95;;
47519;SDS011;33252;48.122;11.538;2024-01-30T10:34:00;6.53;;;2.90;;
47519;SDS011;33252;48.122;11.538;2024-01-30T10:36:28;6.15;;;2.90;;
47519;SDS011;33252;48.122;11.538;2024-01-30T10:38:59;8.95;;;3.15;;
47519;SDS011;33252;48.122;11.538;2024-01-30T10:41:27;9.10;;;2.72;;
47519;SDS011;33252;48.122;11.538;2024-01-30T10:44:06;4.00;;;1.92;;
47519;SDS011;33252;48.122;11.538;2024-01-30T10:46:34;4.45;;;1.65;;
47519;SDS011;33252;48.122;11.538;2024-01-30T10:49:02;4.72;;;1.50;;
47519;SDS011;33252;48.122;11.538;2024-01-30T10:51:29;3.92;;;1.23;;
47519;SDS011;33252;48.122;11.538;2024-01-30T10:53:57;2.78;;;1.27;;
47519;SDS011;33252;48.122;11.538;2024-01-30T10:56:23;3.42;;;1.35;;
47519;SDS011;33252;48.122;11.538;2024-01-30T10:58:52;1.10;;;1.00;;
47519;SDS011;33252;48.122;11.538;2024-01-30T11:01:19;3.67;;;2.13;;
47519;SDS011;33252;48.122;11.538;2024-01-30T11:03:47;3.92;;;0.70;;
47519;SDS011;33252;48.122;11.538;2024-01-30T11:06:14;4.05;;;1.10;;
47519;SDS011;33252;48.122;11.538;2024-01-30T11:08:43;3.10;;;0.77;;
47519;SDS011;33252;48.122;11.538;2024-01-30T11:11:09;3.50;;;1.70;;
47519;SDS011;33252;48.122;11.538;2024-01-30T11:13:35;4.55;;;1.00;;
47519;SDS011;33252;48.122;11.538;2024-01-30T11:16:01;9.18;;;3.00;;
47519;SDS011;33252;48.122;11.538;2024-01-30T11:18:31;3.15;;;0.88;;
47519;SDS011;33252;48.122;11.538;2024-01-30T11:21:00;1.77;;;1.08;;
47519;SDS011;33252;48.122;11.538;2024-01-30T11:23:30;3.25;;;0.77;;
47519;SDS011;33252;48.122;11.538;2024-01-30T11:25:58;3.05;;;1.23;;
47519;SDS011;33252;48.122;11.538;2024-01-30T11:28:23;3.83;;;1.55;;
47519;SDS011;33252;48.122;11.538;2024-01-30T11:30:49;4.20;;;0.98;;
47519;SDS011;33252;48.122;11.538;2024-01-30T11:33:16;3.88;;;1.02;;
47519;SDS011;33252;48.122;11.538;2024-01-30T11:35:53;2.80;;;1.10;;
47519;SDS011;33252;48.122;11.538;2024-01-30T11:38:19;4.15;;;1.25;;
47519;SDS011;33252;48.122;11.538;2024-01-30T11:40:44;1.50;;;0.95;;
47519;SDS011;33252;48.122;11.538;2024-01-30T11:43:10;3.25;;;1.13;;
47519;SDS011;33252;48.122;11.538;2024-01-30T11:45:37;2.33;;;0.73;;
47519;SDS011;33252;48.122;11.538;2024-01-30T11:48:03;5.13;;;1.10;;
47519;SDS011;33252;48.122;11.538;2024-01-30T11:50:32;1.48;;;0.90;;
47519;SDS011;33252;48.122;11.538;2024-01-30T11:52:59;3.58;;;1.10;;
47519;SDS011;33252;48.122;11.538;2024-01-30T11:55:25;4.10;;;1.30;;
47519;SDS011;33252;48.122;11.538;2024-01-30T11:57:51;2.22;;;1.20;;
47519;SDS011;33252;48.122;11.538;2024-01-30T12:00:19;4.55;;;1.58;;
47519;SDS011;33252;48.122;11.538;2024-01-30T12:02:49;2.55;;;1.17;;
47519;SDS011;33252;48.122;11.538;2024-01-30T12:05:16;3.28;;;0.90;;
47519;SDS011;33252;48.122;11.538;2024-01-30T12:07:44;4.00;;;1.40;;
47519;SDS011;33252;48.122;11.538;2024-01-30T12:10:11;1.50;;;0.80;;
47519;SDS011;33252;48.122;11.538;2024-01-30T12:12:38;3.60;;;1.50;;
47519;SDS011;33252;48.122;11.538;2024-01-30T12:15:06;3.25;;;1.25;;
47519;SDS011;33252;48.122;11.538;2024-01-30T12:17:33;2.60;;;0.90;;
47519;SDS011;33252;48.122;11.538;2024-01-30T12:20:09;5.55;;;2.92;;
47519;SDS011;33252;48.122;11.538;2024-01-30T12:22:45;3.20;;;1.80;;
47519;SDS011;33252;48.122;11.538;2024-01-30T12:25:18;2.40;;;1.10;;
47519;SDS011;33252;48.122;11.538;2024-01-30T12:27:46;2.80;;;1.30;;
47519;SDS011;33252;48.122;11.538;2024-01-30T12:30:16;3.03;;;1.35;;
47519;SDS011;33252;48.122;11.538;2024-01-30T12:32:44;4.20;;;1.40;;
47519;SDS011;33252;48.122;11.538;2024-01-30T12:35:11;1.98;;;1.20;;
47519;SDS011;33252;48.122;11.538;2024-01-30T12:37:38;2.35;;;1.20;;
47519;SDS011;33252;48.122;11.538;2024-01-30T12:40:04;2.90;;;1.15;;
47519;SDS011;33252;48.122;11.538;2024-01-30T12:42:32;5.35;;;1.30;;
47519;SDS011;33252;48.122;11.538;2024-01-30T12:44:58;4.82;;;1.52;;
47519;SDS011;33252;48.122;11.538;2024-01-30T12:47:24;3.10;;;1.00;;
47519;SDS011;33252;48.122;11.538;2024-01-30T12:49:50;3.85;;;1.58;;
47519;SDS011;33252;48.122;11.538;2024-01-30T12:52:19;4.20;;;1.15;;
47519;SDS011;33252;48.122;11.538;2024-01-30T12:54:46;2.58;;;0.98;;
47519;SDS011;33252;48.122;11.538;2024-01-30T12:57:12;4.00;;;1.05;;
47519;SDS011;33252;48.122;11.538;2024-01-30T12:59:37;4.30;;;1.15;;
47519;SDS011;33252;48.122;11.538;2024-01-30T13:02:04;4.30;;;1.98;;
47519;SDS011;33252;48.122;11.538;2024-01-30T13:04:29;4.80;;;1.48;;
47519;SDS011;33252;48.122;11.538;2024-01-30T13:06:55;3.67;;;1.23;;
47519;SDS011;33252;48.122;11.538;2024-01-30T13:09:21;2.88;;;1.00;;
47519;SDS011;33252;48.122;11.538;2024-01-30T13:11:47;2.60;;;0.82;;
47519;SDS011;33252;48.122;11.538;2024-01-30T13:14:12;2.35;;;0.95;;
47519;SDS011;33252;48.122;11.538;2024-01-30T13:16:38;2.58;;;1.02;;
47519;SDS011;33252;48.122;11.538;2024-01-30T13:19:03;3.35;;;0.75;;
47519;SDS011;33252;48.122;11.538;2024-01-30T13:21:29;2.53;;;1.00;;
47519;SDS011;33252;48.122;11.538;2024-01-30T13:23:54;1.80;;;0.75;;
47519;SDS011;33252;48.122;11.538;2024-01-30T13:26:20;1.67;;;0.80;;
47519;SDS011;33252;48.122;11.538;2024-01-30T13:28:46;3.28;;;0.82;;
47519;SDS011;33252;48.122;11.538;2024-01-30T13:31:12;3.17;;;1.38;;
47519;SDS011;33252;48.122;11.538;2024-01-30T13:33:39;2.22;;;0.75;;
47519;SDS011;33252;48.122;11.538;2024-01-30T13:36:05;2.13;;;0.90;;
47519;SDS011;33252;48.122;11.538;2024-01-30T13:38:31;2.10;;;0.90;;
47519;SDS011;33252;48.122;11.538;2024-01-30T13:40:57;1.38;;;0.70;;
47519;SDS011;33252;48.122;11.538;2024-01-30T13:43:22;3.55;;;1.33;;
47519;SDS011;33252;48.122;11.538;2024-01-30T13:45:48;2.55;;;1.00;;
47519;SDS011;33252;48.122;11.538;2024-01-30T13:48:13;2.85;;;1.10;;
47519;SDS011;33252;48.122;11.538;2024-01-30T13:50:39;2.15;;;0.80;;
47519;SDS011;33252;48.122;11.538;2024-01-30T13:53:04;1.75;;;1.15;;
47519;SDS011;33252;48.122;11.538;2024-01-30T13:55:30;4.00;;;0.90;;
47519;SDS011;33252;48.122;11.538;2024-01-30T13:57:55;2.55;;;0.60;;
47519;SDS011;33252;48.122;11.538;2024-01-30T14:00:21;2.42;;;1.08;;
47519;SDS011;33252;48.122;11.538;2024-01-30T14:02:48;2.30;;;0.80;;
47519;SDS011;33252;48.122;11.538;2024-01-30T14:05:13;2.65;;;0.85;;
47519;SDS011;33252;48.122;11.538;2024-01-30T14:07:40;3.10;;;0.70;;
47519;SDS011;33252;48.122;11.538;2024-01-30T14:10:07;2.45;;;1.17;;
47519;SDS011;33252;48.122;11.538;2024-01-30T14:12:35;1.42;;;0.90;;
47519;SDS011;33252;48.122;11.538;2024-01-30T14:15:01;6.00;;;1.55;;
47519;SDS011;33252;48.122;11.538;2024-01-30T14:17:26;2.28;;;1.15;;
47519;SDS011;33252;48.122;11.538;2024-01-30T14:19:52;1.55;;;1.00;;
47519;SDS011;33252;48.122;11.538;2024-01-30T14:22:17;7.97;;;1.55;;
47519;SDS011;33252;48.122;11.538;2024-01-30T14:24:43;2.00;;;0.95;;
47519;SDS011;33252;48.122;11.538;2024-01-30T14:27:09;2.85;;;0.93;;